Time;durP1;ratioP1;P1;durP2;ratioP2;P2;SDS_P1;SDS_P2;PMS_P1;PMS_P2;Temp;Humidity;BMP_temperature;BMP_pressure;BME280_temperature;BME280_humidity;BME280_pressure;Samples;Min_cycle;Max_cycle;Signal;HPM_P1;HPM_P2
2022/12/16 00:01:22;;;;;;;35.15;19.63;;;0.50;99.90;;;;;;5031600;28;20457;-83
2022/12/16 00:03:49;;;;;;;;;;;0.50;99.90;;;;;;5051678;28;20108;-84
2022/12/16 00:06:15;;;;;;;33.45;18.52;;;0.40;99.90;;;;;;5031282;28;19927;-85
2022/12/16 00:08:41;;;;;;;31.63;18.77;;;0.40;99.90;;;;;;5015121;28;20041;-84
2022/12/16 00:11:08;;;;;;;32.67;18.90;;;0.40;99.90;;;;;;5047305;28;20124;-84
2022/12/16 00:13:35;;;;;;;36.85;20.10;;;0.40;99.90;;;;;;5030420;28;20375;-84
2022/12/16 00:16:10;;;;;;;35.35;19.88;;;0.40;99.90;;;;;;5030402;28;20037;-84
2022/12/16 00:18:37;;;;;;;33.10;18.30;;;0.30;99.90;;;;;;5030297;28;20055;-84
2022/12/16 00:21:03;;;;;;;30.23;18.20;;;0.30;99.90;;;;;;5030281;28;20045;-84
2022/12/16 00:23:30;;;;;;;34.90;19.00;;;0.30;99.90;;;;;;5030876;28;20437;-84
2022/12/16 00:25:56;;;;;;;34.92;18.63;;;0.30;99.90;;;;;;5034114;28;20045;-84
2022/12/16 00:28:22;;;;;;;31.95;18.70;;;0.30;99.90;;;;;;5033980;28;20033;-84
2022/12/16 00:30:50;;;;;;;28.58;18.35;;;0.30;99.90;;;;;;5033698;28;20081;-84
2022/12/16 00:33:17;;;;;;;36.55;18.60;;;0.20;99.90;;;;;;5031097;28;20052;-84
2022/12/16 00:35:44;;;;;;;31.83;18.52;;;0.20;99.90;;;;;;5038061;28;20389;-84
2022/12/16 00:38:09;;;;;;;32.38;18.23;;;0.10;99.90;;;;;;5037505;28;20106;-84
2022/12/16 00:40:35;;;;;;;32.55;18.25;;;0.10;99.90;;;;;;5017166;28;20548;-84
2022/12/16 00:43:01;;;;;;;33.03;18.27;;;1.50;99.90;;;;;;5034212;28;20045;-83
2022/12/16 00:45:27;;;;;;;36.10;17.80;;;0.10;99.90;;;;;;5034204;28;20397;-76
2022/12/16 00:47:53;;;;;;;29.15;17.65;;;0.30;99.90;;;;;;5048376;28;20053;-76
2022/12/16 00:50:19;;;;;;;29.77;15.95;;;0.10;99.90;;;;;;5031920;28;20040;-76
2022/12/16 00:52:46;;;;;;;31.50;16.35;;;0.10;99.90;;;;;;5032078;28;20049;-76
2022/12/16 00:55:12;;;;;;;27.10;15.02;;;0.30;99.90;;;;;;5015454;28;20037;-76
2022/12/16 00:57:41;;;;;;;26.05;14.60;;;0.20;99.90;;;;;;5031458;28;20374;-76
2022/12/16 01:00:11;;;;;;;26.60;13.80;;;0.20;99.90;;;;;;5031806;28;20053;-76
2022/12/16 01:02:41;;;;;;;25.20;12.00;;;0.30;99.90;;;;;;5031241;28;20038;-76
2022/12/16 01:05:09;;;;;;;21.65;10.48;;;0.40;99.90;;;;;;5032062;28;20030;-76
2022/12/16 01:07:34;;;;;;;18.30;9.55;;;0.50;99.90;;;;;;5032050;28;20045;-76
2022/12/16 01:10:00;;;;;;;18.92;8.77;;;0.60;99.90;;;;;;5031414;28;20128;-76
2022/12/16 01:12:27;;;;;;;14.25;8.20;;;2.30;99.90;;;;;;5014871;28;20112;-76
2022/12/16 01:14:52;;;;;;;16.05;7.93;;;1.90;99.90;;;;;;5031607;28;20045;-76
2022/12/16 01:17:18;;;;;;;15.53;7.00;;;0.80;99.90;;;;;;5031047;28;20748;-76
2022/12/16 01:19:44;;;;;;;13.02;6.18;;;0.90;99.90;;;;;;5031354;28;21456;-76
2022/12/16 01:22:13;;;;;;;11.73;5.73;;;0.90;99.90;;;;;;5014861;28;20080;-76
2022/12/16 01:24:38;;;;;;;10.52;5.05;;;1.00;99.90;;;;;;5032530;28;20037;-84
2022/12/16 01:27:04;;;;;;;7.15;4.70;;;1.10;99.90;;;;;;5032902;28;20034;-84
2022/12/16 01:29:30;;;;;;;11.93;4.97;;;1.20;99.90;;;;;;5032607;28;20100;-83
2022/12/16 01:31:55;;;;;;;7.30;3.95;;;1.30;99.90;;;;;;5016533;28;20041;-83
2022/12/16 01:34:22;;;;;;;6.53;4.13;;;1.40;99.90;;;;;;5031905;28;20029;-83
2022/12/16 01:36:48;;;;;;;6.88;3.60;;;1.40;99.90;;;;;;5029386;28;20121;-84
2022/12/16 01:39:14;;;;;;;6.10;3.35;;;1.50;99.90;;;;;;5033412;28;20120;-83
2022/12/16 01:41:39;;;;;;;11.00;4.30;;;1.50;99.90;;;;;;5015850;28;20065;-84
2022/12/16 01:44:20;;;;;;;8.33;3.60;;;1.60;99.90;;;;;;5033035;28;20069;-83
2022/12/16 01:47:02;;;;;;;6.60;3.88;;;1.60;99.90;;;;;;5033247;28;20351;-83
2022/12/16 01:49:47;;;;;;;6.80;3.75;;;1.60;99.90;;;;;;5029945;28;20034;-84
2022/12/16 01:52:20;;;;;;;6.07;3.80;;;1.70;99.90;;;;;;5026492;28;20033;-83
2022/12/16 01:55:12;;;;;;;5.25;3.40;;;1.60;99.90;;;;;;5013362;28;20037;-84
2022/12/16 01:58:19;;;;;;;5.82;3.15;;;1.60;99.90;;;;;;5031920;28;20433;-84
2022/12/16 02:00:45;;;;;;;5.32;3.38;;;1.70;99.90;;;;;;5004297;28;20565;-83
2022/12/16 02:03:13;;;;;;;5.70;3.50;;;1.90;99.90;;;;;;5027132;28;20099;-83
2022/12/16 02:05:41;;;;;;;7.18;3.53;;;1.90;99.90;;;;;;5033239;28;20477;-84
2022/12/16 02:08:18;;;;;;;5.30;3.47;;;1.90;99.90;;;;;;5032489;28;20029;-84
2022/12/16 02:10:43;;;;;;;5.28;3.05;;;1.90;99.90;;;;;;5032337;28;20111;-83
2022/12/16 02:13:44;;;;;;;6.23;3.10;;;2.00;99.90;;;;;;5032077;28;20029;-84
2022/12/16 02:16:22;;;;;;;8.88;3.20;;;2.00;99.90;;;;;;5014293;28;20367;-83
2022/12/16 02:18:47;;;;;;;5.95;3.65;;;2.00;99.90;;;;;;5032205;28;20045;-82
2022/12/16 02:21:13;;;;;;;9.17;3.73;;;2.00;99.90;;;;;;5031850;28;20034;-83
2022/12/16 02:24:12;;;;;;;6.57;3.50;;;2.00;99.90;;;;;;5031756;28;20500;-82
2022/12/16 02:26:53;;;;;;;6.38;3.30;;;2.00;99.90;;;;;;5013270;28;20064;-83
2022/12/16 02:29:56;;;;;;;9.45;3.17;;;2.00;99.90;;;;;;5030710;28;20478;-83
2022/12/16 02:32:43;;;;;;;7.20;3.63;;;1.90;99.90;;;;;;5028987;28;20041;-83
2022/12/16 02:35:27;;;;;;;5.40;3.35;;;1.90;99.90;;;;;;5032046;28;20120;-83
2022/12/16 02:37:56;;;;;;;8.25;3.60;;;1.80;99.90;;;;;;5032388;28;20053;-83
2022/12/16 02:40:36;;;;;;;5.53;3.25;;;2.40;99.90;;;;;;5029697;28;20041;-83
2022/12/16 02:43:37;;;;;;;8.30;3.25;;;2.00;99.90;;;;;;5032461;28;20040;-83
2022/12/16 02:46:05;;;;;;;5.63;3.45;;;1.80;99.90;;;;;;5010776;28;20520;-83
2022/12/16 02:48:31;;;;;;;7.32;3.63;;;1.80;99.90;;;;;;5031838;28;20041;-83
2022/12/16 02:50:56;;;;;;;6.10;3.47;;;1.70;99.90;;;;;;5032008;28;20514;-83
2022/12/16 02:53:22;;;;;;;6.43;3.70;;;1.70;99.90;;;;;;5031891;28;20585;-84
2022/12/16 02:56:00;;;;;;;7.18;3.80;;;1.80;99.90;;;;;;5032335;28;20168;-83
2022/12/16 02:58:53;;;;;;;5.80;3.40;;;1.70;99.90;;;;;;5027276;28;20045;-83
2022/12/16 03:01:31;;;;;;;6.70;3.60;;;1.60;99.90;;;;;;5030050;28;20034;-83
2022/12/16 03:04:04;;;;;;;6.78;3.70;;;1.60;99.90;;;;;;5030731;28;20033;-83
2022/12/16 03:06:32;;;;;;;6.65;3.75;;;1.60;99.90;;;;;;5027556;28;20037;-84
2022/12/16 03:09:00;;;;;;;6.38;3.70;;;1.60;99.90;;;;;;5032154;28;20482;-83
2022/12/16 03:11:29;;;;;;;8.93;4.32;;;1.60;99.90;;;;;;5032179;28;20501;-82
2022/12/16 03:13:56;;;;;;;7.80;3.83;;;1.60;99.90;;;;;;5031389;28;20042;-83
2022/12/16 03:16:26;;;;;;;6.53;3.90;;;1.60;99.90;;;;;;5015081;28;20045;-83
2022/12/16 03:18:55;;;;;;;5.95;4.00;;;1.60;99.90;;;;;;5031416;28;20034;-83
2022/12/16 03:21:28;;;;;;;5.95;3.85;;;1.60;99.90;;;;;;5031604;28;20116;-83
2022/12/16 03:23:57;;;;;;;8.60;4.28;;;2.70;99.90;;;;;;5028683;28;20122;-83
2022/12/16 03:27:01;;;;;;;8.98;4.97;;;2.60;99.90;;;;;;5031284;28;20469;-83
2022/12/16 03:29:57;;;;;;;9.50;5.40;;;1.70;99.90;;;;;;5023842;28;20045;-83
2022/12/16 03:32:55;;;;;;;10.75;5.75;;;1.70;99.90;;;;;;5031145;28;20163;-83
2022/12/16 03:35:36;;;;;;;12.52;6.53;;;1.70;99.90;;;;;;5029168;28;20113;-83
2022/12/16 03:38:05;;;;;;;10.85;6.85;;;1.70;99.90;;;;;;5030461;28;20057;-84
2022/12/16 03:40:32;;;;;;;17.25;9.20;;;1.70;99.90;;;;;;5046503;28;20132;-83
2022/12/16 03:43:00;;;;;;;16.00;9.95;;;1.70;99.90;;;;;;5030977;28;20064;-83
2022/12/16 03:45:31;;;;;;;22.23;12.57;;;2.60;99.90;;;;;;5028410;28;20489;-83
2022/12/16 03:47:59;;;;;;;27.45;14.13;;;1.80;99.90;;;;;;5014657;28;20029;-83
2022/12/16 03:50:29;;;;;;;22.42;13.43;;;1.80;99.90;;;;;;5014828;28;20124;-82
2022/12/16 03:52:55;;;;;;;30.73;14.43;;;1.80;99.90;;;;;;5030679;28;20041;-82
2022/12/16 03:55:21;;;;;;;29.90;14.60;;;2.20;99.90;;;;;;5030119;28;20064;-83
2022/12/16 03:57:46;;;;;;;31.05;15.02;;;1.90;99.90;;;;;;5028984;28;20559;-83
2022/12/16 04:00:13;;;;;;;31.87;16.97;;;1.90;99.90;;;;;;5034090;28;20064;-83
2022/12/16 04:02:38;;;;;;;31.05;17.10;;;1.90;99.90;;;;;;5034636;28;20042;-83
2022/12/16 04:05:04;;;;;;;41.72;19.33;;;1.90;99.90;;;;;;5035592;28;20044;-83
2022/12/16 04:07:31;;;;;;;33.75;18.10;;;1.90;99.90;;;;;;5051360;28;20041;-83
2022/12/16 04:09:56;;;;;;;39.80;18.88;;;1.80;99.90;;;;;;5034465;28;20044;-83
2022/12/16 04:29:18;;;;;;;41.03;20.50;;;1.70;99.90;;;;;;5032542;28;20049;-84
2022/12/16 04:31:44;;;;;;;37.30;20.35;;;1.60;99.90;;;;;;5034012;28;20073;-83
2022/12/16 04:34:25;;;;;;;40.90;21.67;;;1.60;99.90;;;;;;5033108;28;20045;-84
